createdAt,value
2023-01-28T00:00:54.514Z,16.60
2023-01-28T00:03:22.522Z,23.27
2023-01-28T00:05:52.226Z,21.43
2023-01-28T00:08:20.116Z,66.10
2023-01-28T00:10:48.016Z,55.07
2023-01-28T00:13:16.158Z,47.23
2023-01-28T00:15:44.635Z,29.33
2023-01-28T00:18:12.607Z,24.27
2023-01-28T00:20:40.477Z,25.33
2023-01-28T00:23:09.758Z,20.50
2023-01-28T00:25:37.706Z,22.67
2023-01-28T00:28:05.593Z,22.63
2023-01-28T00:30:33.565Z,22.80
2023-01-28T00:33:01.986Z,21.63
2023-01-28T00:35:30.079Z,25.93
2023-01-28T00:37:58.000Z,21.43
2023-01-28T00:40:27.366Z,20.13
2023-01-28T00:42:55.361Z,20.10
2023-01-28T00:45:23.497Z,21.87
2023-01-28T00:47:51.372Z,17.33
2023-01-28T00:50:20.261Z,17.93
2023-01-28T00:52:48.188Z,14.47
2023-01-28T00:55:16.536Z,11.70
2023-01-28T00:57:46.024Z,14.37
2023-01-28T01:00:14.730Z,16.23
2023-01-28T01:02:42.692Z,15.50
2023-01-28T01:05:10.841Z,19.00
2023-01-28T01:07:42.708Z,15.83
2023-01-28T01:10:11.194Z,17.20
2023-01-28T01:12:39.570Z,17.00
2023-01-28T01:15:11.586Z,19.30
2023-01-28T01:17:39.776Z,17.00
2023-01-28T01:20:08.953Z,19.07
2023-01-28T01:22:37.152Z,16.80
2023-01-28T01:25:05.409Z,15.63
2023-01-28T01:27:33.523Z,10.37
2023-01-28T01:30:01.662Z,12.43
2023-01-28T01:32:32.239Z,13.77
2023-01-28T01:35:00.142Z,11.57
2023-01-28T01:37:28.082Z,12.40
2023-01-28T01:39:56.008Z,10.63
2023-01-28T01:42:23.897Z,11.27
2023-01-28T01:44:57.971Z,12.77
2023-01-28T01:47:27.250Z,11.83
2023-01-28T01:49:56.541Z,14.13
2023-01-28T01:52:27.410Z,10.33
2023-01-28T01:54:57.399Z,10.47
2023-01-28T01:57:27.369Z,13.07
2023-01-28T01:59:55.267Z,12.57
2023-01-28T02:02:23.193Z,9.17
2023-01-28T02:04:51.152Z,9.20
2023-01-28T02:07:20.529Z,11.27
2023-01-28T02:09:48.464Z,11.77
2023-01-28T02:12:18.429Z,11.40
2023-01-28T02:14:47.815Z,15.67
2023-01-28T02:17:15.690Z,11.87
2023-01-28T02:19:45.598Z,14.43
2023-01-28T02:23:00.997Z,12.47
2023-01-28T02:26:13.721Z,11.50
2023-01-28T02:28:45.779Z,13.27
2023-01-28T02:31:17.871Z,12.60
2023-01-28T02:33:48.173Z,9.33
2023-01-28T02:36:19.628Z,14.83
2023-01-28T02:38:48.904Z,14.07
2023-01-28T02:41:24.465Z,11.20
2023-01-28T02:43:53.790Z,16.37
2023-01-28T02:46:40.984Z,14.97
2023-01-28T02:49:11.231Z,16.20
2023-01-28T02:51:51.637Z,15.27
2023-01-28T02:54:21.486Z,11.77
2023-01-28T02:56:50.909Z,12.97
2023-01-28T02:59:36.767Z,12.47
2023-01-28T03:02:13.271Z,14.37
2023-01-28T03:04:45.383Z,15.50
2023-01-28T03:07:13.421Z,11.90
2023-01-28T03:09:40.702Z,13.87
2023-01-28T03:12:27.824Z,17.97
2023-01-28T03:15:16.045Z,19.03
2023-01-28T03:18:03.308Z,20.13
2023-01-28T03:20:53.542Z,14.97
2023-01-28T03:23:41.446Z,13.00
2023-01-28T03:26:26.883Z,13.43
2023-01-28T03:29:12.356Z,12.27
2023-01-28T03:31:59.223Z,11.90
2023-01-28T03:34:44.742Z,10.73
2023-01-28T03:37:14.790Z,11.40
2023-01-28T03:39:42.693Z,12.70
2023-01-28T03:42:11.971Z,11.20
2023-01-28T03:44:55.308Z,10.97
2023-01-28T03:47:25.562Z,12.53
2023-01-28T03:49:54.113Z,14.50
2023-01-28T03:52:23.086Z,13.10
2023-01-28T03:54:52.814Z,13.60
2023-01-28T03:57:22.028Z,10.73
2023-01-28T03:59:50.621Z,11.70
2023-01-28T04:02:18.716Z,12.10
2023-01-28T04:04:48.037Z,11.37
2023-01-28T04:07:15.974Z,12.50
2023-01-28T04:09:44.078Z,13.87
2023-01-28T04:12:11.992Z,12.17
2023-01-28T04:14:40.453Z,17.30
2023-01-28T04:17:08.814Z,14.73
2023-01-28T04:19:37.340Z,14.73
2023-01-28T04:22:07.967Z,15.50
2023-01-28T04:24:35.885Z,13.60
2023-01-28T04:27:03.848Z,11.17
2023-01-28T04:29:31.842Z,16.63
2023-01-28T04:31:59.772Z,12.23
2023-01-28T04:34:27.714Z,11.93
2023-01-28T04:36:55.573Z,13.03
2023-01-28T04:39:24.885Z,13.23
2023-01-28T04:41:52.806Z,16.53
2023-01-28T04:44:20.737Z,11.10
2023-01-28T04:46:48.676Z,15.97
2023-01-28T04:49:16.556Z,10.67
2023-01-28T04:51:44.483Z,11.80
2023-01-28T04:54:12.396Z,15.20
2023-01-28T04:56:41.669Z,16.10
2023-01-28T04:59:09.703Z,13.40
2023-01-28T05:01:37.716Z,12.13
2023-01-28T05:04:06.052Z,13.30
2023-01-28T05:06:33.972Z,14.17
2023-01-28T05:09:01.947Z,15.57
2023-01-28T05:11:29.860Z,13.33
2023-01-28T05:13:59.185Z,11.03
2023-01-28T05:16:27.096Z,9.50
2023-01-28T05:18:55.001Z,10.57
2023-01-28T05:21:22.896Z,10.60
2023-01-28T05:23:50.860Z,10.03
2023-01-28T05:26:18.774Z,11.87
2023-01-28T05:28:46.687Z,10.20
2023-01-28T05:31:15.956Z,14.53
2023-01-28T05:33:43.948Z,13.43
2023-01-28T05:36:11.925Z,14.13
2023-01-28T05:38:39.851Z,11.97
2023-01-28T05:41:07.821Z,11.57
2023-01-28T05:43:35.767Z,10.13
2023-01-28T05:46:03.725Z,14.77
2023-01-28T05:48:33.057Z,13.20
2023-01-28T05:51:01.935Z,12.60
2023-01-28T05:53:29.882Z,11.20
2023-01-28T05:55:57.832Z,16.03
2023-01-28T05:58:27.139Z,9.83
2023-01-28T06:00:56.004Z,10.87
2023-01-28T06:03:24.122Z,10.93
2023-01-28T06:05:53.388Z,9.80
2023-01-28T06:08:21.250Z,10.33
2023-01-28T06:10:49.151Z,10.00
2023-01-28T06:13:17.084Z,13.17
2023-01-28T06:15:45.068Z,10.93
2023-01-28T06:18:13.072Z,13.17
2023-01-28T06:20:41.000Z,11.97
2023-01-28T06:23:10.349Z,10.27
2023-01-28T06:25:38.236Z,10.57
2023-01-28T06:28:06.346Z,11.30
2023-01-28T06:30:34.287Z,11.33
2023-01-28T06:33:02.239Z,13.20
2023-01-28T06:35:30.137Z,13.30
2023-01-28T06:37:58.411Z,9.17
2023-01-28T06:40:27.725Z,12.73
2023-01-28T06:42:55.635Z,12.13
2023-01-28T06:45:23.618Z,11.97
2023-01-28T06:47:51.517Z,16.00
2023-01-28T06:50:19.459Z,13.80
2023-01-28T06:52:47.400Z,14.83
2023-01-28T06:55:15.546Z,14.20
2023-01-28T06:57:45.635Z,13.83
2023-01-28T07:00:16.207Z,11.33
2023-01-28T07:02:44.360Z,15.53
2023-01-28T07:05:12.301Z,13.07
2023-01-28T07:07:41.905Z,13.37
2023-01-28T07:10:11.254Z,12.57
2023-01-28T07:12:39.159Z,12.70
2023-01-28T07:15:10.975Z,15.43
2023-01-28T07:17:40.635Z,14.57
2023-01-28T07:20:10.105Z,17.20
2023-01-28T07:22:39.538Z,20.77
2023-01-28T07:25:08.471Z,13.00
2023-01-28T07:27:36.424Z,15.17
2023-01-28T07:30:04.627Z,15.27
2023-01-28T07:32:33.914Z,18.33
2023-01-28T07:35:01.863Z,13.60
2023-01-28T07:37:29.897Z,14.63
2023-01-28T07:39:57.815Z,19.90
2023-01-28T07:42:25.763Z,19.77
2023-01-28T07:44:53.652Z,14.63
2023-01-28T07:47:21.629Z,12.37
2023-01-28T07:49:50.909Z,13.63
2023-01-28T07:52:18.965Z,15.60
2023-01-28T07:54:46.847Z,15.50
2023-01-28T07:57:14.735Z,13.50
2023-01-28T07:59:43.828Z,12.53
2023-01-28T08:02:13.376Z,16.10
2023-01-28T08:04:41.682Z,14.67
2023-01-28T08:07:11.046Z,17.20
2023-01-28T08:09:39.141Z,16.80
2023-01-28T08:12:07.271Z,19.93
2023-01-28T08:14:35.257Z,14.63
2023-01-28T08:17:03.119Z,17.30
2023-01-28T08:19:31.074Z,13.73
2023-01-28T08:21:59.081Z,17.83
2023-01-28T08:24:28.343Z,20.17
2023-01-28T08:26:56.491Z,17.87
2023-01-28T08:29:24.494Z,20.33
2023-01-28T08:31:52.404Z,14.67
2023-01-28T08:34:20.315Z,15.73
2023-01-28T08:36:48.220Z,16.47
2023-01-28T08:39:16.150Z,16.93
2023-01-28T08:41:45.473Z,16.93
2023-01-28T08:44:13.435Z,16.47
2023-01-28T08:46:41.514Z,18.00
2023-01-28T08:49:09.552Z,19.73
2023-01-28T08:51:37.418Z,24.07
2023-01-28T08:54:05.613Z,35.63
2023-01-28T08:56:33.635Z,33.07
2023-01-28T08:59:03.165Z,31.30
2023-01-28T09:01:31.075Z,21.00
2023-01-28T09:03:59.113Z,22.60
2023-01-28T09:06:27.128Z,24.03
2023-01-28T09:08:58.452Z,23.37
2023-01-28T09:11:26.450Z,26.67
2023-01-28T09:13:54.462Z,32.13
2023-01-28T09:16:23.958Z,27.97
2023-01-28T09:18:54.109Z,28.07
2023-01-28T09:21:22.083Z,24.47
2023-01-28T09:23:50.278Z,20.33
2023-01-28T09:26:18.204Z,17.20
2023-01-28T09:28:46.173Z,23.23
2023-01-28T09:31:14.158Z,21.00
2023-01-28T09:33:43.524Z,26.10
2023-01-28T09:36:11.697Z,19.00
2023-01-28T09:38:39.660Z,18.17
2023-01-28T09:43:59.370Z,24.03
2023-01-28T09:46:30.165Z,22.30
2023-01-28T09:49:01.659Z,22.97
2023-01-28T09:51:32.732Z,18.87
2023-01-28T09:54:03.002Z,19.07
2023-01-28T09:56:32.123Z,23.67
2023-01-28T09:59:00.271Z,28.60
2023-01-28T10:01:40.735Z,25.73
2023-01-28T10:04:18.076Z,18.63
2023-01-28T10:06:49.599Z,24.47
2023-01-28T10:09:26.964Z,23.57
2023-01-28T10:12:08.854Z,20.33
2023-01-28T10:14:44.312Z,25.30
2023-01-28T10:17:14.218Z,27.37
2023-01-28T10:19:47.254Z,28.77
2023-01-28T10:22:17.357Z,23.73
2023-01-28T10:24:46.833Z,22.67
2023-01-28T10:27:17.683Z,19.03
2023-01-28T10:29:46.600Z,21.03
2023-01-28T10:32:19.787Z,21.57
2023-01-28T10:34:49.336Z,22.50
2023-01-28T10:37:17.428Z,22.07
2023-01-28T10:39:45.873Z,25.03
2023-01-28T10:42:18.271Z,22.53
2023-01-28T10:44:46.274Z,25.57
2023-01-28T10:47:16.153Z,22.80
2023-01-28T10:49:47.159Z,27.00
2023-01-28T10:52:18.553Z,23.37
2023-01-28T10:54:46.510Z,19.90
2023-01-28T10:57:17.855Z,19.67
2023-01-28T10:59:45.747Z,19.60
2023-01-28T11:02:32.611Z,19.23
2023-01-28T11:05:05.540Z,20.23
2023-01-28T11:07:34.939Z,21.13
2023-01-28T11:10:03.005Z,19.43
2023-01-28T11:12:31.650Z,16.57
2023-01-28T11:15:00.804Z,19.00
2023-01-28T11:17:30.049Z,18.47
2023-01-28T11:19:59.401Z,22.10
2023-01-28T11:22:32.076Z,49.40
2023-01-28T11:25:04.327Z,23.93
2023-01-28T11:27:32.715Z,18.60
2023-01-28T11:30:04.265Z,19.17
2023-01-28T11:32:32.109Z,18.20
2023-01-28T11:35:00.565Z,23.93
2023-01-28T11:37:29.084Z,17.47
2023-01-28T11:40:21.300Z,15.17
2023-01-28T11:42:50.517Z,16.00
2023-01-28T11:45:19.002Z,18.40
2023-01-28T11:50:34.954Z,20.17
2023-01-28T11:53:19.468Z,17.20
2023-01-28T11:55:55.382Z,18.77
2023-01-28T11:58:25.050Z,21.07
2023-01-28T12:00:58.419Z,17.07
2023-01-28T12:03:42.789Z,25.00
2023-01-28T12:06:29.696Z,25.03
2023-01-28T12:09:02.294Z,21.03
2023-01-28T12:11:54.614Z,34.17
2023-01-28T12:14:27.401Z,22.87
2023-01-28T12:17:00.277Z,15.90
2023-01-28T12:19:47.775Z,16.17
2023-01-28T12:22:36.342Z,17.07
2023-01-28T12:25:21.274Z,17.80
2023-01-28T12:27:54.584Z,23.03
2023-01-28T12:30:30.295Z,18.33
2023-01-28T12:33:13.669Z,23.17
2023-01-28T12:35:51.262Z,18.93
2023-01-28T12:38:24.223Z,19.63
2023-01-28T12:40:56.995Z,17.27
2023-01-28T12:43:34.498Z,18.10
2023-01-28T12:46:04.103Z,18.70
2023-01-28T12:48:35.223Z,23.20
2023-01-28T12:51:05.020Z,20.40
2023-01-28T12:53:40.051Z,17.20
2023-01-28T12:56:09.905Z,18.70
2023-01-28T12:58:41.788Z,22.57
2023-01-28T13:01:13.256Z,25.83
2023-01-28T13:03:46.008Z,15.87
2023-01-28T13:06:16.576Z,15.90
2023-01-28T13:08:47.816Z,16.13
2023-01-28T13:11:18.486Z,18.73
2023-01-28T13:13:48.068Z,15.10
2023-01-28T13:16:17.914Z,19.67
2023-01-28T13:18:48.606Z,15.77
2023-01-28T13:21:18.882Z,22.37
2023-01-28T13:23:47.348Z,15.83
2023-01-28T13:26:32.590Z,21.67
2023-01-28T13:29:19.997Z,23.63
2023-01-28T13:31:51.858Z,18.70
2023-01-28T13:34:38.301Z,31.07
2023-01-28T13:37:16.413Z,14.70
2023-01-28T13:39:51.088Z,17.47
2023-01-28T13:42:26.347Z,20.23
2023-01-28T13:44:55.720Z,19.67
2023-01-28T13:47:29.161Z,23.17
2023-01-28T13:50:00.610Z,25.70
2023-01-28T13:52:30.166Z,20.53
2023-01-28T13:55:02.008Z,26.30
2023-01-28T13:58:17.318Z,22.87
2023-01-28T14:01:07.001Z,18.43
2023-01-28T14:04:03.513Z,30.37
2023-01-28T14:06:46.830Z,19.90
2023-01-28T14:09:29.705Z,23.33
2023-01-28T14:12:29.032Z,23.43
2023-01-28T14:15:08.483Z,20.40
2023-01-28T14:17:43.397Z,21.80
2023-01-28T14:20:19.475Z,20.83
2023-01-28T14:22:47.991Z,17.37
2023-01-28T14:25:17.902Z,33.57
2023-01-28T14:27:51.275Z,25.13
2023-01-28T14:30:21.754Z,22.17
2023-01-28T14:32:51.506Z,21.43
2023-01-28T14:35:21.227Z,23.63
2023-01-28T14:37:51.187Z,26.00
2023-01-28T14:40:19.411Z,25.43
2023-01-28T14:42:48.084Z,21.87
2023-01-28T14:45:28.630Z,25.30
2023-01-28T14:48:22.895Z,23.37
2023-01-28T14:51:12.993Z,22.40
2023-01-28T14:54:25.430Z,21.33
2023-01-28T14:57:06.437Z,25.87
2023-01-28T14:59:43.999Z,23.37
2023-01-28T15:02:13.954Z,18.93
2023-01-28T15:04:43.383Z,17.17
2023-01-28T15:07:18.220Z,20.70
2023-01-28T15:09:46.354Z,22.90
2023-01-28T15:12:14.413Z,26.40
2023-01-28T15:14:42.666Z,22.37
2023-01-28T15:17:25.668Z,25.63
2023-01-28T15:19:55.565Z,20.23
2023-01-28T15:22:25.275Z,25.97
2023-01-28T15:24:53.362Z,26.43
2023-01-28T15:27:25.430Z,21.40
2023-01-28T15:29:53.688Z,27.20
2023-01-28T15:32:24.656Z,20.70
2023-01-28T15:34:53.975Z,22.87
2023-01-28T15:37:22.071Z,23.63
2023-01-28T15:39:50.260Z,19.73
2023-01-28T15:42:21.012Z,20.67
2023-01-28T15:44:49.178Z,21.50
2023-01-28T15:47:18.151Z,24.37
2023-01-28T15:49:48.194Z,18.87
2023-01-28T15:52:17.490Z,23.83
2023-01-28T15:54:46.640Z,25.70
2023-01-28T15:57:19.784Z,21.53
2023-01-28T15:59:51.060Z,26.57
2023-01-28T16:02:19.727Z,42.57
2023-01-28T16:04:57.427Z,44.97
2023-01-28T16:07:27.272Z,40.87
2023-01-28T16:09:55.844Z,42.17
2023-01-28T16:12:23.719Z,24.70
2023-01-28T16:14:52.434Z,34.40
2023-01-28T16:17:21.092Z,26.57
2023-01-28T16:19:50.171Z,29.97
2023-01-28T16:22:20.675Z,27.03
2023-01-28T16:24:53.499Z,23.70
2023-01-28T16:27:22.437Z,37.40
2023-01-28T16:29:50.503Z,105.03
2023-01-28T16:32:29.584Z,74.77
2023-01-28T16:34:57.529Z,47.27
2023-01-28T16:40:01.608Z,40.20
2023-01-28T16:42:30.390Z,28.67
2023-01-28T16:44:58.845Z,27.63
2023-01-28T16:47:34.382Z,26.40
2023-01-28T16:50:02.298Z,32.77
2023-01-28T16:52:30.159Z,40.53
2023-01-28T16:54:59.644Z,39.73
2023-01-28T16:57:27.603Z,28.37
2023-01-28T16:59:55.561Z,30.77
2023-01-28T17:02:23.522Z,29.23
2023-01-28T17:04:51.460Z,24.47
2023-01-28T17:07:19.385Z,24.53
2023-01-28T17:09:47.486Z,25.93
2023-01-28T17:12:18.809Z,27.97
2023-01-28T17:14:46.695Z,30.33
2023-01-28T17:17:14.701Z,41.13
2023-01-28T17:19:42.594Z,33.10
2023-01-28T17:22:10.642Z,30.40
2023-01-28T17:24:38.757Z,30.37
2023-01-28T17:27:06.913Z,36.13
2023-01-28T17:29:36.572Z,29.00
2023-01-28T17:32:04.551Z,32.70
2023-01-28T17:34:35.020Z,31.80
2023-01-28T17:37:03.336Z,31.50
2023-01-28T17:39:31.440Z,34.90
2023-01-28T17:41:59.367Z,26.80
2023-01-28T17:44:27.305Z,30.30
2023-01-28T17:46:56.590Z,33.20
2023-01-28T17:49:24.623Z,25.27
2023-01-28T17:51:53.141Z,26.53
2023-01-28T17:54:21.478Z,26.30
2023-01-28T17:56:49.515Z,26.63
2023-01-28T17:59:17.780Z,29.43
2023-01-28T18:01:50.162Z,30.70
2023-01-28T18:04:19.611Z,28.50
2023-01-28T18:06:49.279Z,29.33
2023-01-28T18:09:20.081Z,40.77
2023-01-28T18:11:48.042Z,39.53
2023-01-28T18:14:15.975Z,50.47
2023-01-28T18:16:43.900Z,53.43
2023-01-28T18:19:11.807Z,41.37
2023-01-28T18:21:57.165Z,28.50
2023-01-28T18:24:26.045Z,31.53
2023-01-28T18:26:55.508Z,42.77
2023-01-28T18:29:24.210Z,45.53
2023-01-28T18:31:54.467Z,33.93
2023-01-28T18:34:22.679Z,34.67
2023-01-28T18:36:52.071Z,32.30
2023-01-28T18:39:20.409Z,34.20
2023-01-28T18:41:48.477Z,97.07
2023-01-28T18:44:16.477Z,158.00
2023-01-28T18:46:44.573Z,140.17
2023-01-28T18:49:12.447Z,110.83
2023-01-28T18:51:40.511Z,79.43
2023-01-28T18:54:13.687Z,43.93
2023-01-28T18:56:42.160Z,45.83
2023-01-28T18:59:11.902Z,40.33
2023-01-28T19:01:40.426Z,37.43
2023-01-28T19:04:08.338Z,41.00
2023-01-28T19:06:39.304Z,47.17
2023-01-28T19:09:07.403Z,62.57
2023-01-28T19:11:38.536Z,117.77
2023-01-28T19:14:06.756Z,62.47
2023-01-28T19:16:35.392Z,49.53
2023-01-28T19:19:03.729Z,48.63
2023-01-28T19:21:32.309Z,51.40
2023-01-28T19:24:01.282Z,52.43
2023-01-28T19:26:30.396Z,60.53
2023-01-28T19:28:59.982Z,41.20
2023-01-28T19:31:28.761Z,35.80
2023-01-28T19:34:00.610Z,36.43
2023-01-28T19:36:29.464Z,57.37
2023-01-28T19:38:58.314Z,69.50
2023-01-28T19:41:26.349Z,73.00
2023-01-28T19:43:54.265Z,95.53
2023-01-28T19:46:23.727Z,82.93
2023-01-28T19:48:51.623Z,75.87
2023-01-28T19:51:19.554Z,62.73
2023-01-28T19:53:47.873Z,57.27
2023-01-28T19:56:16.270Z,36.63
2023-01-28T19:58:44.727Z,46.50
2023-01-28T20:01:13.559Z,57.33
2023-01-28T20:03:45.639Z,50.83
2023-01-28T20:06:14.469Z,42.93
2023-01-28T20:08:42.613Z,42.77
2023-01-28T20:11:11.516Z,43.57
2023-01-28T20:13:39.968Z,41.73
2023-01-28T20:16:08.550Z,40.97
2023-01-28T20:18:36.542Z,44.90
2023-01-28T20:21:06.164Z,39.17
2023-01-28T20:23:34.180Z,50.90
2023-01-28T20:26:02.079Z,60.07
2023-01-28T20:28:30.243Z,42.73
2023-01-28T20:30:58.300Z,43.97
2023-01-28T20:33:26.318Z,35.33
2023-01-28T20:35:54.399Z,39.67
2023-01-28T20:38:23.658Z,37.33
2023-01-28T20:40:51.569Z,40.67
2023-01-28T20:43:20.284Z,35.70
2023-01-28T20:45:48.227Z,35.90
2023-01-28T20:48:16.265Z,33.17
2023-01-28T20:50:44.240Z,35.87
2023-01-28T20:53:14.943Z,35.83
2023-01-28T20:55:44.950Z,41.30
2023-01-28T20:58:13.230Z,40.30
2023-01-28T21:00:43.165Z,38.30
2023-01-28T21:03:11.107Z,38.13
2023-01-28T21:05:39.105Z,36.17
2023-01-28T21:08:07.488Z,33.90
2023-01-28T21:10:35.618Z,53.73
2023-01-28T21:13:04.976Z,39.97
2023-01-28T21:15:32.996Z,44.10
2023-01-28T21:18:01.022Z,49.70
2023-01-28T21:20:29.727Z,55.47
2023-01-28T21:22:57.905Z,40.00
2023-01-28T21:25:26.761Z,41.13
2023-01-28T21:27:54.900Z,36.50
2023-01-28T21:30:24.293Z,34.50
2023-01-28T21:32:52.339Z,37.17
2023-01-28T21:35:20.304Z,34.33
2023-01-28T21:37:50.241Z,36.67
2023-01-28T21:40:18.874Z,38.77
2023-01-28T21:42:47.314Z,36.13
2023-01-28T21:45:15.558Z,35.33
2023-01-28T21:47:44.877Z,36.13
2023-01-28T21:50:12.801Z,34.53
2023-01-28T21:52:40.732Z,30.33
2023-01-28T21:55:09.468Z,33.43
2023-01-28T21:57:37.383Z,30.57
2023-01-28T22:00:05.375Z,40.60
2023-01-28T22:02:33.304Z,36.97
2023-01-28T22:05:05.562Z,33.77
2023-01-28T22:07:33.494Z,32.83
2023-01-28T22:10:01.378Z,31.17
2023-01-28T22:12:29.251Z,34.37
2023-01-28T22:14:57.129Z,31.60
2023-01-28T22:17:25.770Z,28.43
2023-01-28T22:19:54.549Z,31.53
2023-01-28T22:22:23.839Z,29.83
2023-01-28T22:24:51.952Z,30.57
2023-01-28T22:27:19.842Z,33.57
2023-01-28T22:29:47.688Z,35.50
2023-01-28T22:32:15.609Z,33.63
2023-01-28T22:34:47.055Z,30.77
2023-01-28T22:37:15.191Z,32.50
2023-01-28T22:39:46.828Z,26.83
2023-01-28T22:42:14.704Z,28.10
2023-01-28T22:44:42.760Z,26.50
2023-01-28T22:47:10.699Z,28.07
2023-01-28T22:49:38.589Z,26.57
2023-01-28T22:52:06.530Z,30.70
2023-01-28T22:54:34.445Z,28.77
2023-01-28T22:57:03.742Z,26.83
2023-01-28T22:59:32.080Z,23.10
2023-01-28T23:02:00.021Z,28.30
2023-01-28T23:04:27.935Z,26.47
2023-01-28T23:06:55.786Z,23.47
2023-01-28T23:09:23.632Z,26.37
2023-01-28T23:11:51.630Z,28.53
2023-01-28T23:14:38.676Z,24.23
2023-01-28T23:17:24.225Z,23.40
2023-01-28T23:20:21.407Z,24.67
2023-01-28T23:23:07.115Z,27.40
2023-01-28T23:25:35.463Z,27.33
2023-01-28T23:28:03.330Z,24.07
2023-01-28T23:30:32.651Z,22.97
2023-01-28T23:33:01.511Z,25.53
2023-01-28T23:35:30.979Z,23.57
2023-01-28T23:37:59.291Z,25.73
2023-01-28T23:40:27.304Z,26.13
2023-01-28T23:42:56.088Z,27.23
2023-01-28T23:45:24.209Z,28.70
2023-01-28T23:47:53.490Z,23.93
2023-01-28T23:50:22.801Z,25.67
2023-01-28T23:52:52.305Z,29.67
2023-01-28T23:55:20.182Z,31.90
2023-01-28T23:57:48.089Z,34.73
